Time;durP1;ratioP1;P1;durP2;ratioP2;P2;SDS_P1;SDS_P2;PMS_P1;PMS_P2;Temp;Humidity;BMP_temperature;BMP_pressure;BME280_temperature;BME280_humidity;BME280_pressure;Samples;Min_cycle;Max_cycle;Signal;HPM_P1;HPM_P2
2022/03/07 00:01:51;;;;;;;;;;;;;;;2.14;86.66;94874.38;5134398;27;1045;-48
2022/03/07 00:04:18;;;;;;;;;;;;;;;2.13;86.75;94880.63;5134874;27;995;-48
2022/03/07 00:06:44;;;;;;;;;;;;;;;2.05;87.61;94875.06;5134748;27;981;-48
2022/03/07 00:09:10;;;;;;;;;;;;;;;1.99;87.64;94879.00;5134692;27;1056;-48
2022/03/07 00:11:37;;;;;;;;;;;;;;;1.97;87.98;94880.94;5134573;27;1910;-48
2022/03/07 00:14:03;;;;;;;;;;;;;;;1.93;88.25;94877.69;5134294;27;964;-48
2022/03/07 00:16:30;;;;;;;;;;;;;;;1.95;88.36;94878.44;5134428;27;1855;-48
2022/03/07 00:18:56;;;;;;;;;;;;;;;1.97;88.43;94878.28;5134470;27;979;-48
2022/03/07 00:21:22;;;;;;;;;;;;;;;2.06;87.91;94874.13;5134403;27;1195;-48
2022/03/07 00:23:48;;;;;;;;;;;;;;;2.07;87.65;94878.47;5134129;27;1043;-48
2022/03/07 00:26:14;;;;;;;;;;;;;;;2.09;87.47;94879.19;5134443;27;995;-48
2022/03/07 00:28:40;;;;;;;;;;;;;;;2.12;87.44;94879.75;5134030;27;1893;-48
2022/03/07 00:31:06;;;;;;;;;;;;;;;2.14;87.36;94867.34;5134331;28;1909;-48
2022/03/07 00:33:34;;;;;;;;;;;;;;;2.16;87.21;94869.81;5133828;28;1314;-48
2022/03/07 00:35:59;;;;;;;;;;;;;;;2.12;86.85;94868.38;5134212;27;1035;-48
2022/03/07 00:38:25;;;;;;;;;;;;;;;2.00;87.39;94872.81;5134377;28;980;-48
2022/03/07 00:40:52;;;;;;;;;;;;;;;1.91;87.62;94870.84;5134364;28;1047;-48
2022/03/07 00:43:21;;;;;;;;;;;;;;;1.93;88.19;94867.13;5134157;27;961;-48
2022/03/07 00:45:47;;;;;;;;;;;;;;;2.03;87.74;94864.66;5133941;27;1027;-48
2022/03/07 00:48:14;;;;;;;;;;;;;;;2.12;87.04;94855.19;5134191;27;1044;-47
2022/03/07 00:50:42;;;;;;;;;;;;;;;2.11;86.61;94857.00;5131272;27;1906;-48
2022/03/07 00:53:09;;;;;;;;;;;;;;;2.14;86.87;94855.91;5117109;28;1011;-48
2022/03/07 00:55:36;;;;;;;;;;;;;;;2.03;86.63;94851.47;5117684;28;1048;-48
2022/03/07 00:58:02;;;;;;;;;;;;;;;1.94;86.82;94855.66;5117358;28;1094;-48
2022/03/07 01:00:28;;;;;;;;;;;;;;;2.10;86.59;94849.19;5117388;28;1056;-48
2022/03/07 01:02:55;;;;;;;;;;;;;;;1.89;87.04;94856.94;5117290;28;1012;-48
2022/03/07 01:05:21;;;;;;;;;;;;;;;1.77;87.81;94855.25;5117669;28;972;-48
2022/03/07 01:07:47;;;;;;;;;;;;;;;1.80;87.68;94847.91;5117534;28;1007;-48
2022/03/07 01:10:13;;;;;;;;;;;;;;;1.80;87.30;94847.09;5117615;28;1906;-48
2022/03/07 01:12:39;;;;;;;;;;;;;;;1.88;87.24;94842.94;5117138;28;1095;-48
2022/03/07 01:15:06;;;;;;;;;;;;;;;1.88;87.14;94839.47;5116959;28;975;-48
2022/03/07 01:17:32;;;;;;;;;;;;;;;1.90;87.11;94838.38;5117448;28;992;-48
2022/03/07 01:19:58;;;;;;;;;;;;;;;2.04;86.72;94842.59;5116979;28;1867;-48
2022/03/07 01:22:24;;;;;;;;;;;;;;;2.11;85.69;94841.19;5117427;28;984;-48
2022/03/07 01:24:50;;;;;;;;;;;;;;;2.17;85.66;94831.97;5117121;28;1012;-48
2022/03/07 01:27:16;;;;;;;;;;;;;;;2.10;85.38;94844.75;5117032;28;1102;-48
2022/03/07 01:29:42;;;;;;;;;;;;;;;2.10;85.45;94839.47;5116909;28;1988;-48
2022/03/07 01:32:08;;;;;;;;;;;;;;;2.07;86.07;94841.53;5117150;28;1044;-48
2022/03/07 01:34:34;;;;;;;;;;;;;;;2.04;86.29;94845.22;5116753;28;1220;-48
2022/03/07 01:37:00;;;;;;;;;;;;;;;2.00;86.48;94837.69;5116828;28;1070;-48
2022/03/07 01:39:26;;;;;;;;;;;;;;;1.99;86.83;94834.19;5116799;28;998;-48
2022/03/07 01:41:52;;;;;;;;;;;;;;;2.03;86.47;94840.06;5116795;28;1040;-47
2022/03/07 01:44:20;;;;;;;;;;;;;;;2.07;86.01;94837.09;5116495;28;998;-48
2022/03/07 01:46:46;;;;;;;;;;;;;;;2.13;86.02;94834.00;5116882;28;976;-48
2022/03/07 01:49:13;;;;;;;;;;;;;;;2.14;85.79;94830.41;5116656;28;1024;-48
2022/03/07 01:51:42;;;;;;;;;;;;;;;2.03;85.54;94834.78;5127678;27;1983;-47
2022/03/07 01:54:10;;;;;;;;;;;;;;;1.93;86.04;94837.28;5136953;27;1004;-48
2022/03/07 01:56:36;;;;;;;;;;;;;;;1.95;86.42;94836.25;5137137;27;1857;-48
2022/03/07 01:59:03;;;;;;;;;;;;;;;2.03;86.49;94838.28;5136602;27;1075;-48
2022/03/07 02:01:29;;;;;;;;;;;;;;;2.06;86.48;94838.03;5136946;27;1063;-48
2022/03/07 02:03:55;;;;;;;;;;;;;;;1.99;86.21;94836.81;5136158;27;1110;-47
2022/03/07 02:06:21;;;;;;;;;;;;;;;1.99;85.88;94839.47;5137052;27;1028;-48
2022/03/07 02:08:49;;;;;;;;;;;;;;;1.96;85.96;94829.16;5136713;27;1032;-48
2022/03/07 02:11:15;;;;;;;;;;;;;;;2.01;85.95;94839.34;5137037;27;1977;-48
2022/03/07 02:13:41;;;;;;;;;;;;;;;2.05;85.96;94846.94;5136232;27;1020;-48
2022/03/07 02:16:09;;;;;;;;;;;;;;;2.05;86.10;94841.66;5136869;27;1027;-48
2022/03/07 02:18:35;;;;;;;;;;;;;;;2.07;85.97;94852.09;5136828;27;1029;-48
2022/03/07 02:21:09;;;;;;;;;;;;;;;2.11;85.64;94846.44;5136388;27;1293;-48
2022/03/07 02:23:35;;;;;;;;;;;;;;;2.11;85.72;94840.34;5136928;27;1055;-48
2022/03/07 02:26:08;;;;;;;;;;;;;;;2.03;86.03;94846.22;5136827;27;933;-48
2022/03/07 02:28:34;;;;;;;;;;;;;;;2.03;85.95;94845.34;5136712;27;954;-47
2022/03/07 02:31:01;;;;;;;;;;;;;;;1.97;86.29;94848.47;5136314;27;1910;-48
2022/03/07 02:33:27;;;;;;;;;;;;;;;2.00;86.40;94848.22;5136341;27;1101;-48
2022/03/07 02:35:53;;;;;;;;;;;;;;;2.12;85.57;94849.94;5136070;27;1131;-48
2022/03/07 02:38:19;;;;;;;;;;;;;;;2.08;85.71;94853.75;5136565;27;1059;-48
2022/03/07 02:40:46;;;;;;;;;;;;;;;2.05;85.57;94852.19;5135864;27;1035;-48
2022/03/07 02:43:12;;;;;;;;;;;;;;;2.10;85.80;94851.84;5136192;27;949;-48
2022/03/07 02:45:38;;;;;;;;;;;;;;;2.11;85.59;94854.38;5136231;27;1027;-48
2022/03/07 02:48:04;;;;;;;;;;;;;;;2.14;85.22;94848.88;5135941;27;1110;-48
2022/03/07 02:50:30;;;;;;;;;;;;;;;2.15;85.53;94850.53;5134541;27;1990;-48
2022/03/07 02:52:56;;;;;;;;;;;;;;;2.17;85.77;94853.06;5115355;28;1028;-48
2022/03/07 02:55:23;;;;;;;;;;;;;;;2.13;85.63;94857.72;5115183;28;1043;-48
2022/03/07 02:57:49;;;;;;;;;;;;;;;2.05;85.88;94846.94;5115119;28;1060;-48
2022/03/07 03:00:15;;;;;;;;;;;;;;;2.07;86.13;94847.66;5115102;28;1095;-48
2022/03/07 03:02:41;;;;;;;;;;;;;;;2.10;86.37;94849.19;5115550;28;989;-48
2022/03/07 03:05:07;;;;;;;;;;;;;;;2.14;85.98;94848.00;5115040;28;1023;-48
2022/03/07 03:07:34;;;;;;;;;;;;;;;2.12;85.81;94842.00;5115081;28;1036;-48
2022/03/07 03:10:00;;;;;;;;;;;;;;;2.11;85.55;94845.63;5114597;28;1963;-48
2022/03/07 03:12:27;;;;;;;;;;;;;;;2.10;85.83;94842.13;5114741;28;1244;-48
2022/03/07 03:14:53;;;;;;;;;;;;;;;2.11;85.43;94849.09;5113807;28;1147;-48
2022/03/07 03:17:20;;;;;;;;;;;;;;;2.12;85.60;94850.75;5115193;28;1048;-47
2022/03/07 03:19:46;;;;;;;;;;;;;;;2.17;84.92;94845.16;5114829;28;991;-48
2022/03/07 03:22:12;;;;;;;;;;;;;;;2.11;85.18;94851.72;5114719;28;1083;-48
2022/03/07 03:24:38;;;;;;;;;;;;;;;2.10;85.31;94855.31;5114748;28;1055;-48
2022/03/07 03:27:04;;;;;;;;;;;;;;;1.98;85.29;94845.72;5114731;28;929;-48
2022/03/07 03:29:30;;;;;;;;;;;;;;;1.88;86.01;94861.38;5114975;28;962;-48
2022/03/07 03:31:57;;;;;;;;;;;;;;;1.81;86.14;94854.88;5114337;28;1906;-48
2022/03/07 03:34:23;;;;;;;;;;;;;;;1.80;86.20;94847.09;5114443;28;1935;-48
2022/03/07 03:36:49;;;;;;;;;;;;;;;1.81;86.15;94849.63;5114280;28;1102;-48
2022/03/07 03:39:15;;;;;;;;;;;;;;;1.82;86.58;94848.69;5114514;28;1047;-48
2022/03/07 03:41:41;;;;;;;;;;;;;;;1.82;86.42;94853.94;5114582;28;984;-48
2022/03/07 03:44:08;;;;;;;;;;;;;;;1.82;86.36;94856.59;5114450;28;1027;-48
2022/03/07 03:46:34;;;;;;;;;;;;;;;1.87;86.58;94856.22;5114249;28;1099;-48
2022/03/07 03:49:00;;;;;;;;;;;;;;;1.92;86.12;94862.84;5114638;28;1041;-48
2022/03/07 03:51:26;;;;;;;;;;;;;;;1.88;85.59;94856.13;5123129;27;2000;-48
2022/03/07 03:53:52;;;;;;;;;;;;;;;1.98;85.53;94860.69;5134933;27;1023;-48
2022/03/07 03:56:18;;;;;;;;;;;;;;;2.03;85.78;94864.66;5134554;27;1052;-48
2022/03/07 03:58:44;;;;;;;;;;;;;;;2.09;85.65;94864.19;5135012;27;1035;-48
2022/03/07 04:01:10;;;;;;;;;;;;;;;2.08;85.33;94867.78;5134657;27;1015;-48
2022/03/07 04:03:36;;;;;;;;;;;;;;;2.09;85.83;94863.38;5134670;27;1868;-48
2022/03/07 04:06:04;;;;;;;;;;;;;;;2.13;85.71;94863.00;5134491;27;988;-48
2022/03/07 04:08:30;;;;;;;;;;;;;;;2.17;85.51;94860.13;5134837;27;980;-48
2022/03/07 04:10:56;;;;;;;;;;;;;;;2.15;85.42;94861.09;5134170;27;2004;-48
2022/03/07 04:13:22;;;;;;;;;;;;;;;2.14;85.60;94867.34;5134435;27;964;-48
2022/03/07 04:15:48;;;;;;;;;;;;;;;2.07;85.94;94862.66;5134227;27;1036;-48
2022/03/07 04:18:14;;;;;;;;;;;;;;;2.06;86.22;94863.59;5134576;27;1062;-48
2022/03/07 04:20:40;;;;;;;;;;;;;;;2.05;86.38;94868.03;5134290;27;1040;-48
2022/03/07 04:23:06;;;;;;;;;;;;;;;2.03;86.05;94858.53;5134277;27;1007;-48
2022/03/07 04:25:33;;;;;;;;;;;;;;;2.09;86.20;94858.91;5134122;27;1040;-48
2022/03/07 04:28:00;;;;;;;;;;;;;;;2.11;85.69;94859.63;5133933;27;1071;-48
2022/03/07 04:30:26;;;;;;;;;;;;;;;2.09;86.19;94858.91;5134648;27;1975;-48
2022/03/07 04:32:52;;;;;;;;;;;;;;;2.07;86.37;94858.19;5134039;28;1197;-48
2022/03/07 04:35:18;;;;;;;;;;;;;;;2.06;85.83;94858.31;5134108;28;1113;-48
2022/03/07 04:37:44;;;;;;;;;;;;;;;2.02;85.87;94849.78;5134279;28;1000;-48
2022/03/07 04:40:12;;;;;;;;;;;;;;;2.01;86.03;94853.41;5134132;28;1008;-48
2022/03/07 04:42:38;;;;;;;;;;;;;;;2.03;86.13;94843.56;5133982;27;991;-48
2022/03/07 04:45:05;;;;;;;;;;;;;;;2.00;85.77;94851.69;5134371;27;1144;-47
2022/03/07 04:47:31;;;;;;;;;;;;;;;2.02;85.64;94846.31;5134099;27;1023;-48
2022/03/07 04:49:57;;;;;;;;;;;;;;;1.99;85.83;94847.38;5134466;27;1910;-47
2022/03/07 04:52:23;;;;;;;;;;;;;;;2.01;85.91;94852.53;5116673;28;1218;-47
2022/03/07 04:54:49;;;;;;;;;;;;;;;2.05;85.89;94841.66;5113406;28;964;-48
2022/03/07 04:57:15;;;;;;;;;;;;;;;2.08;85.94;94848.47;5113549;28;968;-48
2022/03/07 04:59:43;;;;;;;;;;;;;;;2.13;85.08;94844.53;5113647;28;1023;-48
2022/03/07 05:02:09;;;;;;;;;;;;;;;2.09;85.54;94837.00;5113184;28;1083;-48
2022/03/07 05:04:34;;;;;;;;;;;;;;;2.04;85.35;94845.22;5113588;28;1085;-48
2022/03/07 05:07:00;;;;;;;;;;;;;;;2.05;85.47;94851.34;5113170;28;968;-48
2022/03/07 05:09:26;;;;;;;;;;;;;;;2.05;85.89;94851.34;5113308;28;1072;-47
2022/03/07 05:11:52;;;;;;;;;;;;;;;2.04;85.70;94847.88;5112983;28;1906;-48
2022/03/07 05:14:18;;;;;;;;;;;;;;;1.99;86.32;94850.00;5113636;28;1035;-48
2022/03/07 05:16:45;;;;;;;;;;;;;;;2.04;86.27;94852.31;5113158;28;1048;-48
2022/03/07 05:19:11;;;;;;;;;;;;;;;2.11;85.26;94856.16;5113433;28;1034;-48
2022/03/07 05:21:37;;;;;;;;;;;;;;;2.00;85.63;94858.78;5113201;28;1018;-48
2022/03/07 05:24:04;;;;;;;;;;;;;;;1.90;86.18;94861.28;5113130;28;1035;-48
2022/03/07 05:26:30;;;;;;;;;;;;;;;1.95;86.17;94864.38;5113430;28;1116;-47
2022/03/07 05:28:56;;;;;;;;;;;;;;;1.97;85.97;94857.19;5113208;28;1038;-48
2022/03/07 05:31:22;;;;;;;;;;;;;;;2.01;86.11;94861.31;5113140;28;1983;-48
2022/03/07 05:33:48;;;;;;;;;;;;;;;1.96;86.16;94860.81;5112724;28;1249;-48
2022/03/07 05:36:14;;;;;;;;;;;;;;;2.02;86.34;94857.69;5113221;28;1035;-47
2022/03/07 05:38:40;;;;;;;;;;;;;;;2.11;86.26;94857.00;5115674;28;944;-48
2022/03/07 05:41:06;;;;;;;;;;;;;;;2.15;86.06;94868.16;5116889;28;1055;-48
2022/03/07 05:43:32;;;;;;;;;;;;;;;2.19;86.49;94859.06;5116691;28;1018;-48
2022/03/07 05:45:58;;;;;;;;;;;;;;;2.23;86.08;94857.03;5116592;28;1878;-48
2022/03/07 05:48:24;;;;;;;;;;;;;;;2.24;85.98;94859.56;5116838;28;1055;-48
2022/03/07 05:50:50;;;;;;;;;;;;;;;2.20;86.36;94860.75;5120784;27;1914;-48
2022/03/07 05:53:21;;;;;;;;;;;;;;;2.29;86.69;94861.81;5136869;27;1055;-48
2022/03/07 05:55:48;;;;;;;;;;;;;;;2.25;86.38;94855.94;5137196;27;989;-47
2022/03/07 05:58:14;;;;;;;;;;;;;;;2.31;86.35;94857.25;5136979;27;1083;-48
2022/03/07 06:00:40;;;;;;;;;;;;;;;2.44;85.80;94858.00;5137201;27;1023;-48
2022/03/07 06:03:06;;;;;;;;;;;;;;;2.47;86.00;94851.66;5136963;27;992;-48
2022/03/07 06:05:32;;;;;;;;;;;;;;;2.54;85.29;94848.44;5137269;27;977;-48
2022/03/07 06:07:58;;;;;;;;;;;;;;;2.67;84.39;94850.91;5136584;27;1055;-48
2022/03/07 06:10:25;;;;;;;;;;;;;;;2.63;84.31;94857.41;5136914;27;1913;-48
2022/03/07 06:12:51;;;;;;;;;;;;;;;2.53;84.68;94859.94;5136363;27;1858;-48
2022/03/07 06:15:17;;;;;;;;;;;;;;;2.53;84.57;94865.19;5136939;27;979;-48
2022/03/07 06:17:51;;;;;;;;;;;;;;;2.49;85.01;94863.78;5136523;27;1028;-48
2022/03/07 06:20:17;;;;;;;;;;;;;;;2.58;84.19;94867.50;5136550;27;1054;-48
2022/03/07 06:22:43;;;;;;;;;;;;;;;2.74;83.78;94859.22;5136696;27;1020;-48
2022/03/07 06:25:09;;;;;;;;;;;;;;;2.81;82.94;94870.13;5136759;27;973;-48
2022/03/07 06:27:35;;;;;;;;;;;;;;;2.84;83.08;94869.88;5136710;27;961;-48
2022/03/07 06:30:01;;;;;;;;;;;;;;;2.84;81.95;94864.59;5136258;27;1988;-48
2022/03/07 06:32:27;;;;;;;;;;;;;;;2.91;82.43;94866.63;5136702;27;1060;-48
2022/03/07 06:34:54;;;;;;;;;;;;;;;2.94;82.06;94870.84;5136025;27;1238;-48
2022/03/07 06:37:20;;;;;;;;;;;;;;;2.93;82.32;94872.63;5136606;27;1051;-46
2022/03/07 06:39:46;;;;;;;;;;;;;;;2.99;81.68;94863.38;5136094;27;1008;-48
2022/03/07 06:42:12;;;;;;;;;;;;;;;2.94;81.25;94865.56;5136310;27;995;-48
2022/03/07 06:44:40;;;;;;;;;;;;;;;2.89;81.24;94876.47;5136316;27;1055;-48
2022/03/07 06:47:07;;;;;;;;;;;;;;;2.79;82.59;94877.31;5136075;27;957;-48
2022/03/07 06:49:33;;;;;;;;;;;;;;;2.79;83.09;94878.19;5135861;27;987;-48
2022/03/07 06:51:59;;;;;;;;;;;;;;;2.94;81.41;94876.13;5122293;27;1992;-48
2022/03/07 06:54:25;;;;;;;;;;;;;;;2.92;82.61;94876.25;5115367;27;1015;-48
2022/03/07 06:56:51;;;;;;;;;;;;;;;2.97;82.35;94877.69;5115588;28;1039;-48
2022/03/07 06:59:17;;;;;;;;;;;;;;;3.00;82.09;94870.38;5115120;28;1099;-48
2022/03/07 07:01:43;;;;;;;;;;;;;;;2.90;81.58;94878.19;5115274;28;1024;-48
2022/03/07 07:04:09;;;;;;;;;;;;;;;2.99;80.96;94879.22;5115031;28;976;-48
2022/03/07 07:06:35;;;;;;;;;;;;;;;3.06;81.12;94876.97;5115154;28;1847;-48
2022/03/07 07:09:01;;;;;;;;;;;;;;;3.14;81.03;94879.81;5115171;28;1172;-48
2022/03/07 07:11:27;;;;;;;;;;;;;;;3.17;81.07;94882.22;5115176;28;1910;-48
2022/03/07 07:13:53;;;;;;;;;;;;;;;3.39;80.07;94878.69;5114905;28;988;-48
2022/03/07 07:16:19;;;;;;;;;;;;;;;3.39;79.29;94876.03;5115129;28;940;-48
2022/03/07 07:18:45;;;;;;;;;;;;;;;3.63;78.66;94877.66;5114733;28;960;-49
2022/03/07 07:21:11;;;;;;;;;;;;;;;3.90;77.56;94883.31;5113989;28;1040;-48
2022/03/07 07:23:37;;;;;;;;;;;;;;;4.06;77.81;94882.03;5114966;28;981;-48
2022/03/07 07:26:04;;;;;;;;;;;;;;;4.26;76.92;94878.56;5114841;28;1015;-48
2022/03/07 07:28:30;;;;;;;;;;;;;;;4.35;76.46;94884.06;5114647;28;1024;-48
2022/03/07 07:30:56;;;;;;;;;;;;;;;4.42;75.98;94885.19;5114965;28;1980;-48
2022/03/07 07:33:22;;;;;;;;;;;;;;;4.53;75.87;94893.06;5114462;28;1249;-48
2022/03/07 07:35:48;;;;;;;;;;;;;;;4.34;76.27;94890.31;5114371;28;1071;-48
2022/03/07 07:38:14;;;;;;;;;;;;;;;4.20;75.74;94896.78;5114939;28;972;-48
2022/03/07 07:40:40;;;;;;;;;;;;;;;4.30;77.04;94892.38;5114401;28;1023;-48
2022/03/07 07:43:06;;;;;;;;;;;;;;;4.40;76.75;94898.59;5114358;28;1035;-48
2022/03/07 07:45:33;;;;;;;;;;;;;;;4.44;77.76;94897.34;5114217;28;1072;-48
2022/03/07 07:47:59;;;;;;;;;;;;;;;4.45;77.65;94903.47;5114258;28;1040;-48
2022/03/07 07:50:26;;;;;;;;;;;;;;;4.70;76.10;94899.56;5114689;27;1991;-48
2022/03/07 07:52:53;;;;;;;;;;;;;;;5.04;75.34;94897.50;5135009;27;965;-48
2022/03/07 07:55:19;;;;;;;;;;;;;;;5.08;73.30;94900.72;5134887;27;1032;-48
2022/03/07 07:57:45;;;;;;;;;;;;;;;4.96;72.37;94889.38;5135009;27;1208;-47
2022/03/07 08:00:11;;;;;;;;;;;;;;;5.53;70.60;94895.00;5134261;27;999;-48
2022/03/07 08:02:37;;;;;;;;;;;;;;;8.27;65.14;94895.84;5135026;27;1071;-48
2022/03/07 08:05:04;;;;;;;;;;;;;;;12.16;51.31;94896.13;5134423;27;980;-49
2022/03/07 08:07:30;;;;;;;;;;;;;;;9.59;58.73;94897.53;5134857;27;1067;-48
2022/03/07 08:09:57;;;;;;;;;;;;;;;7.95;61.33;94893.72;5134431;27;1926;-48
2022/03/07 08:12:23;;;;;;;;;;;;;;;6.71;65.74;94906.47;5134706;27;1044;-48
2022/03/07 08:14:49;;;;;;;;;;;;;;;5.89;69.23;94900.63;5134384;27;1040;-48
2022/03/07 08:17:15;;;;;;;;;;;;;;;5.47;71.41;94904.34;5134986;27;1012;-48
2022/03/07 08:26:28;;;;;;;;;;;;;;;4.80;74.40;94904.91;4154952;27;1679924;-49
2022/03/07 08:28:54;;;;;;;;;;;;;;;5.06;73.96;94911.44;5152090;27;1020;-49
2022/03/07 08:31:21;;;;;;;;;;;;;;;5.20;73.84;94893.53;5152247;27;1087;-49
2022/03/07 08:33:47;;;;;;;;;;;;;;;4.88;73.88;94903.31;5151907;27;1040;-49
2022/03/07 08:36:13;;;;;;;;;;;;;;;4.86;73.43;94897.31;5151776;27;1060;-48
2022/03/07 08:38:39;;;;;;;;;;;;;;;4.88;73.34;94898.00;5152307;27;1027;-48
2022/03/07 08:41:05;;;;;;;;;;;;;;;4.72;73.30;94896.81;5151751;27;1910;-48
2022/03/07 08:43:31;;;;;;;;;;;;;;;4.64;73.58;94894.81;5151682;27;1091;-48
2022/03/07 08:45:57;;;;;;;;;;;;;;;4.71;73.87;94895.16;5151682;27;1953;-48
2022/03/07 08:48:23;;;;;;;;;;;;;;;4.80;73.05;94889.88;5151706;27;1024;-49
2022/03/07 08:50:49;;;;;;;;;;;;;;;4.73;73.87;94894.03;5151355;27;1188;-48
2022/03/07 08:53:16;;;;;;;;;;;;;;;4.92;72.95;94898.59;5151663;27;1035;-49
2022/03/07 08:55:42;;;;;;;;;;;;;;;5.04;73.04;94897.50;5151752;27;1036;-48
2022/03/07 08:58:08;;;;;;;;;;;;;;;4.97;73.37;94895.53;5151646;27;961;-48
2022/03/07 09:07:35;;;;;;;;;;;;;;;4.87;73.01;94896.31;4470642;27;2862251;-49
2022/03/07 09:10:01;;;;;;;;;;;;;;;5.06;73.29;94900.84;5152124;27;1027;-49
2022/03/07 09:12:29;;;;;;;;;;;;;;;4.96;73.22;94899.16;5152027;27;1027;-49
2022/03/07 09:15:00;;;;;;;;;;;;;;;4.87;72.64;94901.59;5152119;27;1085;-49
2022/03/07 09:17:27;;;;;;;;;;;;;;;4.87;73.43;94898.13;5152594;27;985;-49
2022/03/07 09:19:55;;;;;;;;;;;;;;;5.14;73.84;94900.22;5152100;27;1016;-49
2022/03/07 09:22:22;;;;;;;;;;;;;;;5.46;72.76;94896.50;5151660;27;1906;-49
2022/03/07 09:24:48;;;;;;;;;;;;;;;5.67;71.55;94899.06;5152185;27;952;-49
2022/03/07 09:27:14;;;;;;;;;;;;;;;5.70;70.29;94900.63;5151797;27;1032;-48
2022/03/07 09:29:40;;;;;;;;;;;;;;;5.60;69.77;94901.44;5151904;27;1027;-49
2022/03/07 09:32:06;;;;;;;;;;;;;;;5.65;70.17;94896.56;5133313;27;1032;-49
2022/03/07 09:34:36;;;;;;;;;;;;;;;5.50;73.47;94892.63;5152113;27;989;-49
2022/03/07 09:37:04;;;;;;;;;;;;;;;5.56;71.99;94891.22;5151890;27;1030;-49
2022/03/07 09:39:31;;;;;;;;;;;;;;;5.77;71.92;94899.94;5151968;27;969;-49
2022/03/07 09:41:58;;;;;;;;;;;;;;;5.78;70.12;94898.13;5151408;27;1915;-48
2022/03/07 09:44:24;;;;;;;;;;;;;;;5.65;70.29;94898.38;5151793;27;1048;-49
2022/03/07 09:46:50;;;;;;;;;;;;;;;5.64;72.07;94888.75;5151470;27;999;-48
2022/03/07 09:49:19;;;;;;;;;;;;;;;5.64;71.93;94891.41;5151805;27;1023;-49
2022/03/07 09:51:45;;;;;;;;;;;;;;;5.65;71.89;94887.75;5132979;27;1173;-49
2022/03/07 09:54:11;;;;;;;;;;;;;;;5.76;71.94;94886.81;5151380;27;1032;-49
2022/03/07 09:56:37;;;;;;;;;;;;;;;5.92;70.73;94889.75;5151422;27;1046;-49
2022/03/07 09:59:04;;;;;;;;;;;;;;;5.96;70.91;94882.41;5151370;27;1018;-48
2022/03/07 10:01:30;;;;;;;;;;;;;;;5.83;70.13;94880.81;5151127;27;1016;-48
2022/03/07 10:04:07;;;;;;;;;;;;;;;5.76;72.87;94884.97;5151146;27;1977;-49
2022/03/07 10:06:33;;;;;;;;;;;;;;;5.84;72.00;94886.94;5150912;27;1245;-49
2022/03/07 10:09:00;;;;;;;;;;;;;;;5.79;70.24;94883.88;5151266;27;973;-49
2022/03/07 10:14:44;;;;;;;;;;;;;;;5.67;70.35;94889.31;5113763;27;1308927;-47
2022/03/07 10:17:20;;;;;;;;;;;;;;;5.89;71.13;94883.88;5152507;27;1028;-48
2022/03/07 10:19:47;;;;;;;;;;;;;;;5.66;71.40;94882.31;5152258;27;1035;-47
2022/03/07 10:22:14;;;;;;;;;;;;;;;5.50;68.88;94879.34;5152110;27;1095;-48
2022/03/07 10:24:40;;;;;;;;;;;;;;;5.47;71.51;94880.47;5152198;27;1020;-48
2022/03/07 10:27:06;;;;;;;;;;;;;;;5.41;70.22;94877.56;5151792;27;1016;-46
2022/03/07 10:29:32;;;;;;;;;;;;;;;5.45;70.96;94879.78;5152010;27;1024;-49
2022/03/07 10:31:59;;;;;;;;;;;;;;;5.34;70.48;94884.38;5152118;27;1026;-49
2022/03/07 10:34:26;;;;;;;;;;;;;;;5.38;71.41;94881.28;5151916;27;1963;-49
2022/03/07 10:36:53;;;;;;;;;;;;;;;5.33;70.94;94880.88;5152039;27;964;-48
2022/03/07 10:39:24;;;;;;;;;;;;;;;5.28;72.28;94881.28;5151923;27;1020;-49
2022/03/07 10:41:50;;;;;;;;;;;;;;;5.19;72.18;94879.44;5151650;27;1209;-48
2022/03/07 10:44:27;;;;;;;;;;;;;;;5.20;72.20;94881.13;5152112;27;965;-48
2022/03/07 10:47:03;;;;;;;;;;;;;;;5.20;73.53;94875.81;5151564;27;1023;-48
2022/03/07 10:49:30;;;;;;;;;;;;;;;5.15;72.82;94875.38;5152088;27;1056;-49
2022/03/07 10:51:56;;;;;;;;;;;;;;;5.12;72.88;94872.97;5151464;27;1240;-48
2022/03/07 10:54:22;;;;;;;;;;;;;;;5.15;73.59;94878.03;5151522;27;1986;-48
2022/03/07 10:56:52;;;;;;;;;;;;;;;5.01;72.43;94875.75;5151648;27;953;-49
2022/03/07 10:59:25;;;;;;;;;;;;;;;4.80;73.49;94873.13;5151724;27;961;-49
2022/03/07 11:01:58;;;;;;;;;;;;;;;4.86;74.19;94872.63;5151333;27;1086;-49
2022/03/07 11:04:24;;;;;;;;;;;;;;;5.05;73.07;94878.00;5151795;27;1030;-49
2022/03/07 11:06:50;;;;;;;;;;;;;;;5.07;73.09;94868.09;5151317;27;967;-48
2022/03/07 11:09:16;;;;;;;;;;;;;;;5.07;72.40;94867.25;5151239;27;1015;-49
2022/03/07 11:11:42;;;;;;;;;;;;;;;5.18;72.41;94856.56;5151300;27;1039;-49
2022/03/07 11:14:08;;;;;;;;;;;;;;;5.38;71.86;94862.72;5150619;27;1917;-49
2022/03/07 11:16:35;;;;;;;;;;;;;;;5.46;71.75;94859.41;5151345;27;1024;-48
2022/03/07 11:19:01;;;;;;;;;;;;;;;5.37;72.15;94850.47;5150908;27;1036;-48
2022/03/07 11:21:29;;;;;;;;;;;;;;;5.36;71.93;94853.25;5151380;27;1027;-48
2022/03/07 11:23:56;;;;;;;;;;;;;;;5.38;72.81;94849.47;5149264;27;1031;-48
2022/03/07 11:26:23;;;;;;;;;;;;;;;5.46;71.50;94843.47;5137285;27;947;-49
2022/03/07 11:28:52;;;;;;;;;;;;;;;5.65;69.98;94854.13;5136876;27;1940;-48
2022/03/07 11:31:19;;;;;;;;;;;;;;;5.66;70.01;94847.84;5137261;27;1034;-48
2022/03/07 11:33:51;;;;;;;;;;;;;;;5.70;69.24;94844.91;5136854;27;1914;-50
2022/03/07 11:36:19;;;;;;;;;;;;;;;5.48;69.32;94839.75;5137122;27;1016;-49
2022/03/07 11:38:52;;;;;;;;;;;;;;;5.66;69.77;94839.88;5137082;27;971;-48
2022/03/07 11:41:23;;;;;;;;;;;;;;;5.72;68.48;94837.66;5137270;27;1099;-48
2022/03/07 11:43:54;;;;;;;;;;;;;;;5.45;68.83;94837.34;5136465;27;1093;-48
2022/03/07 11:46:24;;;;;;;;;;;;;;;5.33;70.05;94830.50;5136908;27;1046;-48
2022/03/07 11:48:50;;;;;;;;;;;;;;;5.41;71.12;94832.47;5136753;27;995;-48
2022/03/07 11:51:17;;;;;;;;;;;;;;;5.46;69.88;94827.56;5136966;27;1180;-48
2022/03/07 11:53:45;;;;;;;;;;;;;;;5.42;70.26;94832.31;5136440;27;2000;-48
2022/03/07 11:56:18;;;;;;;;;;;;;;;5.45;69.44;94815.31;5136858;27;991;-49
2022/03/07 11:58:48;;;;;;;;;;;;;;;5.25;70.76;94817.94;5136306;27;1016;-49
2022/03/07 12:01:14;;;;;;;;;;;;;;;5.41;69.03;94819.22;5136532;27;1024;-49
2022/03/07 12:03:40;;;;;;;;;;;;;;;5.50;69.21;94818.34;5136624;27;1035;-48
2022/03/07 12:06:09;;;;;;;;;;;;;;;5.49;68.42;94814.06;5135372;27;1076;-49
2022/03/07 12:08:42;;;;;;;;;;;;;;;5.35;69.65;94817.09;5136302;27;1036;-48
2022/03/07 12:11:09;;;;;;;;;;;;;;;5.28;71.02;94815.00;5136331;27;1040;-49
2022/03/07 12:13:45;;;;;;;;;;;;;;;5.43;70.70;94817.25;5135657;27;1917;-49
2022/03/07 12:16:12;;;;;;;;;;;;;;;5.44;69.88;94821.56;5135374;27;1003;-48
2022/03/07 12:18:38;;;;;;;;;;;;;;;5.12;69.74;94817.31;5136466;27;1060;-49
2022/03/07 12:21:04;;;;;;;;;;;;;;;5.17;71.33;94815.13;5136121;27;1008;-49
2022/03/07 12:23:33;;;;;;;;;;;;;;;5.36;71.02;94818.78;5136263;27;965;-48
2022/03/07 12:26:09;;;;;;;;;;;;;;;5.32;71.13;94807.63;5135957;27;1944;-49
2022/03/07 12:28:37;;;;;;;;;;;;;;;5.15;70.43;94819.72;5135761;27;1039;-48
2022/03/07 12:31:04;;;;;;;;;;;;;;;5.11;71.20;94810.38;5135848;27;1090;-48
2022/03/07 12:33:30;;;;;;;;;;;;;;;5.11;70.28;94806.88;5135802;27;1995;-49
2022/03/07 12:36:09;;;;;;;;;;;;;;;5.12;71.40;94805.91;5134973;27;1099;-48
2022/03/07 12:38:52;;;;;;;;;;;;;;;4.89;70.77;94806.13;5135711;27;1020;-48
2022/03/07 12:41:20;;;;;;;;;;;;;;;4.83;70.23;94802.19;5136032;27;1048;-48
2022/03/07 12:43:51;;;;;;;;;;;;;;;4.92;70.07;94797.06;5135183;27;1193;-48
2022/03/07 12:46:17;;;;;;;;;;;;;;;4.99;70.04;94795.53;5135707;27;1116;-49
2022/03/07 12:48:45;;;;;;;;;;;;;;;5.05;71.32;94802.97;5135774;27;968;-48
2022/03/07 12:51:13;;;;;;;;;;;;;;;5.01;71.26;94806.88;5128493;27;1176;-48
2022/03/07 12:53:59;;;;;;;;;;;;;;;4.85;70.72;94802.88;5114817;28;2020;-49
2022/03/07 12:56:35;;;;;;;;;;;;;;;4.72;71.54;94797.00;5115137;28;968;-48
2022/03/07 12:59:01;;;;;;;;;;;;;;;4.79;72.74;94798.13;5114724;28;1026;-48
2022/03/07 13:01:28;;;;;;;;;;;;;;;4.82;72.36;94795.22;5114833;28;1853;-48
2022/03/07 13:03:54;;;;;;;;;;;;;;;4.79;72.19;94798.13;5114648;28;1036;-48
2022/03/07 13:06:26;;;;;;;;;;;;;;;4.80;72.46;94799.84;5114610;28;1103;-48
2022/03/07 13:08:53;;;;;;;;;;;;;;;4.69;72.28;94794.63;5114827;28;985;-49
2022/03/07 13:11:32;;;;;;;;;;;;;;;4.64;72.98;94804.78;5114671;28;1041;-48
2022/03/07 13:13:58;;;;;;;;;;;;;;;4.58;74.34;94800.03;5113944;28;1917;-49
2022/03/07 13:16:29;;;;;;;;;;;;;;;4.59;75.09;94788.44;5114497;28;1177;-49
2022/03/07 13:18:59;;;;;;;;;;;;;;;4.68;74.07;94795.59;5114677;28;977;-48
2022/03/07 13:21:25;;;;;;;;;;;;;;;4.87;74.23;94795.66;5114637;28;1023;-49
2022/03/07 13:23:51;;;;;;;;;;;;;;;5.02;73.99;94793.47;5114418;28;958;-49
2022/03/07 13:26:22;;;;;;;;;;;;;;;5.17;74.28;94793.91;5114143;28;1084;-48